createdAt,value
2022-12-03T00:02:49.840Z,0.64
2022-12-03T00:07:52.769Z,0.51
2022-12-03T00:12:56.948Z,0.51
2022-12-03T00:17:59.708Z,0.31
2022-12-03T00:23:03.108Z,0.47
2022-12-03T00:28:07.617Z,0.47
2022-12-03T00:33:10.409Z,0.53
2022-12-03T00:38:13.180Z,0.33
2022-12-03T00:43:17.374Z,0.43
2022-12-03T00:48:20.188Z,0.38
2022-12-03T00:53:23.000Z,0.23
2022-12-03T00:58:27.100Z,0.47
2022-12-03T01:03:30.012Z,0.44
2022-12-03T01:08:32.815Z,0.31
2022-12-03T01:13:36.952Z,0.44
2022-12-03T01:18:39.699Z,0.38
2022-12-03T01:23:42.453Z,0.41
2022-12-03T01:28:46.559Z,0.28
2022-12-03T01:33:49.371Z,0.34
2022-12-03T01:38:52.163Z,0.34
2022-12-03T01:43:57.939Z,0.32
2022-12-03T01:49:00.715Z,0.23
2022-12-03T01:54:05.929Z,0.37
2022-12-03T01:59:10.572Z,0.34
2022-12-03T02:04:15.500Z,0.42
2022-12-03T02:09:18.339Z,0.41
2022-12-03T02:14:23.073Z,0.37
2022-12-03T02:19:29.734Z,0.36
2022-12-03T02:24:40.934Z,0.43
2022-12-03T02:29:45.396Z,0.43
2022-12-03T02:34:48.163Z,0.13
2022-12-03T02:39:55.226Z,0.23
2022-12-03T02:45:05.112Z,0.12
2022-12-03T02:50:10.639Z,0.04
2022-12-03T02:55:15.652Z,-0.06
2022-12-03T03:00:22.969Z,-0.20
2022-12-03T03:05:26.284Z,-0.18
2022-12-03T03:10:30.591Z,-0.24
2022-12-03T03:15:36.768Z,-0.23
2022-12-03T03:20:40.818Z,-0.26
2022-12-03T03:25:45.915Z,-0.37
2022-12-03T03:30:50.046Z,-0.26
2022-12-03T03:35:53.331Z,-0.21
2022-12-03T03:40:57.382Z,-0.42
2022-12-03T03:46:04.823Z,-0.60
2022-12-03T03:51:09.793Z,-0.47
2022-12-03T03:56:13.074Z,-0.35
2022-12-03T04:01:19.207Z,-0.36
2022-12-03T04:06:22.289Z,-0.36
2022-12-03T04:11:41.628Z,-0.29
2022-12-03T04:16:45.745Z,-0.25
2022-12-03T04:22:05.933Z,-0.21
2022-12-03T04:27:27.417Z,-0.51
2022-12-03T04:32:48.990Z,-0.24
2022-12-03T04:37:51.734Z,-0.39
2022-12-03T04:42:54.497Z,-0.30
2022-12-03T04:47:58.652Z,-0.36
2022-12-03T04:53:01.433Z,-0.37
2022-12-03T04:58:04.199Z,-0.17
2022-12-03T05:03:08.305Z,-0.23
2022-12-03T05:08:11.138Z,-0.22
2022-12-03T05:13:14.070Z,-0.22
2022-12-03T05:18:18.542Z,-0.15
2022-12-03T05:23:21.378Z,-0.13
2022-12-03T05:28:24.300Z,-0.28
2022-12-03T05:33:28.404Z,-0.23
2022-12-03T05:38:31.226Z,-0.20
2022-12-03T05:43:33.965Z,-0.31
2022-12-03T05:48:38.055Z,-0.36
2022-12-03T05:53:40.807Z,-0.34
2022-12-03T05:58:43.591Z,-0.28
2022-12-03T06:03:47.801Z,-0.28
2022-12-03T06:08:50.762Z,-0.26
2022-12-03T06:13:53.527Z,-0.42
2022-12-03T06:18:57.902Z,-0.55
2022-12-03T06:24:01.311Z,-0.59
2022-12-03T06:29:04.162Z,-0.40
2022-12-03T06:34:08.248Z,-0.35
2022-12-03T06:39:11.920Z,-0.37
2022-12-03T06:44:14.702Z,-0.32
2022-12-03T06:49:18.879Z,-0.40
2022-12-03T06:54:21.634Z,-0.40
2022-12-03T06:59:24.368Z,-0.47
2022-12-03T07:04:28.520Z,-0.43
2022-12-03T07:09:31.273Z,-0.35
2022-12-03T07:14:34.127Z,-0.22
2022-12-03T07:19:38.261Z,-0.39
2022-12-03T07:24:41.017Z,-0.32
2022-12-03T07:29:43.780Z,-0.34
2022-12-03T07:34:47.887Z,0.03
2022-12-03T07:39:52.330Z,0.38
2022-12-03T07:44:55.289Z,0.42
2022-12-03T07:49:59.656Z,0.35
2022-12-03T07:55:02.706Z,0.29
2022-12-03T08:00:07.041Z,-0.04
2022-12-03T08:05:12.800Z,0.06
2022-12-03T08:10:15.592Z,-0.20
2022-12-03T08:15:21.107Z,-0.31
2022-12-03T08:20:27.499Z,-0.43
2022-12-03T08:25:33.324Z,-0.48
2022-12-03T08:30:36.071Z,-0.30
2022-12-03T08:35:42.819Z,-0.23
2022-12-03T08:40:49.106Z,-0.13
2022-12-03T08:45:53.624Z,-0.08
2022-12-03T08:50:59.819Z,-0.06
2022-12-03T08:56:05.056Z,-0.06
2022-12-03T09:01:31.973Z,-0.24
2022-12-03T09:06:36.143Z,-0.20
2022-12-03T09:11:39.158Z,-0.03
2022-12-03T09:16:42.544Z,-0.08
2022-12-03T09:21:46.671Z,-0.19
2022-12-03T09:26:49.636Z,-0.07
2022-12-03T09:31:52.577Z,0.03
2022-12-03T09:36:56.775Z,0.25
2022-12-03T09:41:59.676Z,0.33
2022-12-03T09:47:03.620Z,0.15
2022-12-03T09:52:09.122Z,0.20
2022-12-03T09:57:13.489Z,0.29
2022-12-03T10:02:22.309Z,0.23
2022-12-03T10:07:27.262Z,0.07
2022-12-03T10:12:30.240Z,0.36
2022-12-03T10:17:33.339Z,0.27
2022-12-03T10:22:37.707Z,0.65
2022-12-03T10:27:41.363Z,0.73
2022-12-03T10:32:46.655Z,1.03
2022-12-03T10:38:03.152Z,0.92
2022-12-03T10:43:25.716Z,1.04
2022-12-03T10:48:28.597Z,1.20
2022-12-03T10:53:36.419Z,1.12
2022-12-03T10:58:40.761Z,1.14
2022-12-03T11:03:43.599Z,0.96
2022-12-03T11:08:56.229Z,0.97
2022-12-03T11:14:01.480Z,0.87
2022-12-03T11:19:04.767Z,0.74
2022-12-03T11:24:20.485Z,0.79
2022-12-03T11:29:48.877Z,0.77
2022-12-03T11:34:51.805Z,0.78
2022-12-03T11:40:39.102Z,0.77
2022-12-03T11:45:42.488Z,0.74
2022-12-03T11:50:50.609Z,0.68
2022-12-03T11:56:08.813Z,0.78
2022-12-03T12:01:12.116Z,0.89
2022-12-03T12:06:16.639Z,0.78
2022-12-03T12:11:26.225Z,0.68
2022-12-03T12:16:45.757Z,0.72
2022-12-03T12:21:49.929Z,0.59
2022-12-03T12:26:54.168Z,0.71
2022-12-03T12:32:04.477Z,0.71
2022-12-03T12:37:12.676Z,0.55
2022-12-03T12:42:33.236Z,0.37
2022-12-03T12:47:37.266Z,0.33
2022-12-03T12:52:52.231Z,0.16
2022-12-03T12:58:01.004Z,0.22
2022-12-03T13:03:05.855Z,0.27
2022-12-03T13:08:22.103Z,0.32
2022-12-03T13:13:31.253Z,0.30
2022-12-03T13:18:39.977Z,0.37
2022-12-03T13:23:42.798Z,0.38
2022-12-03T13:28:46.927Z,0.37
2022-12-03T13:33:49.789Z,0.42
2022-12-03T13:38:54.288Z,0.41
2022-12-03T13:43:58.604Z,0.38
2022-12-03T13:49:02.212Z,0.26
2022-12-03T13:54:14.514Z,0.11
2022-12-03T13:59:25.820Z,0.28
2022-12-03T14:04:29.036Z,0.37
2022-12-03T14:09:32.088Z,0.39
2022-12-03T14:14:36.282Z,0.36
2022-12-03T14:19:39.156Z,0.37
2022-12-03T14:24:42.056Z,0.25
2022-12-03T14:29:46.264Z,0.25
2022-12-03T14:34:49.053Z,0.22
2022-12-03T14:39:52.396Z,0.15
2022-12-03T14:44:56.840Z,0.11
2022-12-03T14:49:59.671Z,0.13
2022-12-03T14:55:02.479Z,0.08
2022-12-03T15:00:08.070Z,0.05
2022-12-03T15:05:11.094Z,0.11
2022-12-03T15:10:13.879Z,0.03
2022-12-03T15:15:18.024Z,-0.06
2022-12-03T15:20:20.809Z,-0.07
2022-12-03T15:25:25.465Z,-0.19
2022-12-03T15:30:30.795Z,-0.08
2022-12-03T15:35:33.701Z,-0.17
2022-12-03T15:40:38.092Z,-0.09
2022-12-03T15:45:42.332Z,-0.02
2022-12-03T15:50:45.226Z,-0.10
2022-12-03T15:55:47.971Z,-0.06
2022-12-03T16:00:52.152Z,-0.15
2022-12-03T16:05:54.896Z,-0.09
2022-12-03T16:10:57.694Z,-0.09
2022-12-03T16:16:01.848Z,-0.07
2022-12-03T16:21:04.712Z,-0.17
2022-12-03T16:26:07.482Z,-0.25
2022-12-03T16:31:11.754Z,-0.30
2022-12-03T16:36:14.722Z,-0.14
2022-12-03T16:41:17.543Z,-0.22
2022-12-03T16:46:25.776Z,-0.19
2022-12-03T16:51:30.320Z,-0.23
2022-12-03T16:56:33.159Z,-0.24
2022-12-03T17:01:37.398Z,-0.26
2022-12-03T17:06:40.165Z,-0.22
2022-12-03T17:11:43.020Z,-0.43
2022-12-03T17:16:47.225Z,-0.25
2022-12-03T17:21:50.035Z,-0.16
2022-12-03T17:26:53.021Z,-0.24
2022-12-03T17:31:57.249Z,-0.22
2022-12-03T17:37:00.069Z,-0.11
2022-12-03T17:42:02.824Z,-0.11
2022-12-03T17:47:07.219Z,-0.10
2022-12-03T17:52:10.137Z,-0.15
2022-12-03T17:57:13.062Z,-0.11
2022-12-03T18:02:17.387Z,-0.14
2022-12-03T18:07:20.255Z,-0.19
2022-12-03T18:12:23.031Z,-0.10
2022-12-03T18:17:27.300Z,-0.05
2022-12-03T18:22:30.140Z,-0.08
2022-12-03T18:27:33.048Z,-0.10
2022-12-03T18:32:37.172Z,-0.16
2022-12-03T18:37:40.812Z,-0.17
2022-12-03T18:42:43.594Z,-0.12
2022-12-03T18:47:47.940Z,-0.29
2022-12-03T18:52:50.777Z,-0.28
2022-12-03T18:57:53.548Z,-0.21
2022-12-03T19:03:05.190Z,-0.14
2022-12-03T19:08:14.415Z,-0.09
2022-12-03T19:13:17.242Z,-0.17
2022-12-03T19:18:21.563Z,-0.13
2022-12-03T19:23:24.569Z,-0.09
2022-12-03T19:28:28.089Z,-0.16
2022-12-03T19:33:33.091Z,-0.15
2022-12-03T19:38:36.082Z,-0.21
2022-12-03T19:43:39.612Z,-0.09
2022-12-03T19:48:43.906Z,-0.12
2022-12-03T19:53:47.010Z,-0.10
2022-12-03T19:58:49.992Z,-0.11
2022-12-03T20:03:56.872Z,-0.09
2022-12-03T20:09:01.535Z,-0.08
2022-12-03T20:14:07.102Z,-0.08
2022-12-03T20:19:14.086Z,-0.14
2022-12-03T20:24:19.240Z,-0.11
2022-12-03T20:29:22.017Z,-0.15
2022-12-03T20:34:26.122Z,-0.22
2022-12-03T20:39:28.939Z,-0.19
2022-12-03T20:44:31.701Z,-0.19
2022-12-03T20:49:36.311Z,-0.17
2022-12-03T20:54:39.153Z,-0.15
2022-12-03T20:59:41.908Z,-0.18
2022-12-03T21:04:46.023Z,-0.24
2022-12-03T21:09:48.788Z,-0.17
2022-12-03T21:14:51.579Z,-0.15
2022-12-03T21:19:55.891Z,-0.19
2022-12-03T21:24:58.764Z,-0.30
2022-12-03T21:30:01.585Z,-0.19
2022-12-03T21:35:06.325Z,-0.20
2022-12-03T21:40:09.971Z,-0.23
2022-12-03T21:45:12.798Z,-0.20
2022-12-03T21:50:16.974Z,-0.32
2022-12-03T21:55:19.764Z,-0.30
2022-12-03T22:00:23.040Z,-0.34
2022-12-03T22:05:27.170Z,-0.35
2022-12-03T22:10:30.015Z,-0.22
2022-12-03T22:15:32.843Z,-0.22
2022-12-03T22:20:36.984Z,-0.15
2022-12-03T22:25:39.763Z,-0.13
2022-12-03T22:30:42.641Z,-0.13
2022-12-03T22:35:55.657Z,-0.10
2022-12-03T22:40:58.540Z,-0.12
2022-12-03T22:46:01.419Z,-0.08
2022-12-03T22:51:10.921Z,-0.02
2022-12-03T22:56:13.736Z,-0.03
2022-12-03T23:01:23.155Z,0.00
2022-12-03T23:06:28.153Z,-0.06
2022-12-03T23:11:32.984Z,-0.15
2022-12-03T23:16:35.840Z,-0.07
2022-12-03T23:21:40.050Z,-0.03
2022-12-03T23:26:42.869Z,0.03
2022-12-03T23:31:45.729Z,0.07
2022-12-03T23:36:49.974Z,0.12
2022-12-03T23:41:53.319Z,0.08
2022-12-03T23:46:56.112Z,-0.04
2022-12-03T23:52:00.693Z,-0.08
2022-12-03T23:57:03.424Z,-0.01
